Time;durP1;ratioP1;P1;durP2;ratioP2;P2;SDS_P1;SDS_P2;PMS_P1;PMS_P2;Temp;Humidity;BMP_temperature;BMP_pressure;BME280_temperature;BME280_humidity;BME280_pressure;Samples;Min_cycle;Max_cycle;Signal;HPM_P1;HPM_P2
2022/01/29 00:02:16;;;;;;;5.57;4.35;;;;;;;;;;5034363;28;20056;-70
2022/01/29 00:04:43;;;;;;;6.82;3.90;;;;;;;;;;5035775;28;20076;-74
2022/01/29 00:07:11;;;;;;;6.72;3.92;;;;;;;;;;5034300;28;20040;-71
2022/01/29 00:09:39;;;;;;;5.70;4.03;;;;;;;;;;5033910;28;20045;-74
2022/01/29 00:12:07;;;;;;;5.20;4.15;;;;;;;;;;5034055;28;20049;-74
2022/01/29 00:14:34;;;;;;;8.73;5.00;;;;;;;;;;5033941;28;20141;-74
2022/01/29 00:17:02;;;;;;;8.30;4.32;;;;;;;;;;5035429;28;20044;-74
2022/01/29 00:19:29;;;;;;;6.18;4.00;;;;;;;;;;5035518;28;20048;-70
2022/01/29 00:21:58;;;;;;;7.18;4.40;;;;;;;;;;5035254;28;20511;-74
2022/01/29 00:24:25;;;;;;;4.43;3.60;;;;;;;;;;5033871;28;20042;-74
2022/01/29 00:26:53;;;;;;;8.00;3.47;;;;;;;;;;5035102;28;20494;-74
2022/01/29 00:29:22;;;;;;;6.85;3.95;;;;;;;;;;5035111;28;20048;-74
2022/01/29 00:31:50;;;;;;;5.80;3.38;;;;;;;;;;5033989;28;20404;-70
2022/01/29 00:34:17;;;;;;;4.90;3.13;;;;;;;;;;5033781;28;20045;-70
2022/01/29 00:36:45;;;;;;;4.18;3.15;;;;;;;;;;5035125;28;20076;-71
2022/01/29 00:39:13;;;;;;;7.90;3.40;;;;;;;;;;5017646;28;20038;-77
2022/01/29 00:41:40;;;;;;;4.05;3.08;;;;;;;;;;5034244;28;20044;-70
2022/01/29 00:44:07;;;;;;;4.70;2.88;;;;;;;;;;5033749;28;20056;-70
2022/01/29 00:46:40;;;;;;;5.43;3.10;;;;;;;;;;5034922;28;20033;-70
2022/01/29 00:49:11;;;;;;;6.18;3.00;;;;;;;;;;5035043;28;20048;-70
2022/01/29 00:51:39;;;;;;;3.33;2.95;;;;;;;;;;5034924;28;20493;-70
2022/01/29 00:54:07;;;;;;;6.25;3.85;;;;;;;;;;5034919;28;20064;-70
2022/01/29 00:56:35;;;;;;;9.25;5.25;;;;;;;;;;5033342;28;20060;-73
2022/01/29 00:59:02;;;;;;;8.32;5.78;;;;;;;;;;5033487;28;20044;-70
2022/01/29 01:01:31;;;;;;;7.32;3.72;;;;;;;;;;5034742;28;20121;-73
2022/01/29 01:03:58;;;;;;;5.88;3.75;;;;;;;;;;5034555;28;20037;-73
2022/01/29 01:06:26;;;;;;;5.28;3.03;;;;;;;;;;5033300;28;20041;-74
2022/01/29 01:08:53;;;;;;;7.25;3.35;;;;;;;;;;5034025;28;20112;-70
2022/01/29 01:11:21;;;;;;;7.95;4.13;;;;;;;;;;5033412;28;20114;-73
2022/01/29 01:13:48;;;;;;;8.65;4.72;;;;;;;;;;5033759;28;20041;-73
2022/01/29 01:16:16;;;;;;;8.23;4.30;;;;;;;;;;5033147;28;20063;-73
2022/01/29 01:18:43;;;;;;;7.78;4.60;;;;;;;;;;5034327;28;20047;-74
2022/01/29 01:21:11;;;;;;;9.63;3.92;;;;;;;;;;5034086;28;20397;-73
2022/01/29 01:23:38;;;;;;;6.25;3.10;;;;;;;;;;5027400;28;20153;-70
2022/01/29 01:26:07;;;;;;;4.00;2.90;;;;;;;;;;5012937;28;20575;-71
2022/01/29 01:28:34;;;;;;;4.05;2.60;;;;;;;;;;5013912;28;20140;-73
2022/01/29 01:31:03;;;;;;;5.93;2.55;;;;;;;;;;5014168;28;20038;-73
2022/01/29 01:33:31;;;;;;;2.97;2.25;;;;;;;;;;5013922;28;20092;-70
2022/01/29 01:36:02;;;;;;;4.93;2.22;;;;;;;;;;4996909;28;20045;-74
2022/01/29 01:38:42;;;;;;;3.35;2.13;;;;;;;;;;5040472;28;20075;-70
2022/01/29 01:41:14;;;;;;;3.70;2.40;;;;;;;;;;5053455;28;20116;-74
2022/01/29 01:43:41;;;;;;;8.25;3.00;;;;;;;;;;5053100;28;20041;-74
2022/01/29 01:46:09;;;;;;;8.05;5.18;;;;;;;;;;5035418;28;20041;-74
2022/01/29 01:48:36;;;;;;;9.48;5.15;;;;;;;;;;5053606;28;20124;-74
2022/01/29 01:51:04;;;;;;;8.32;4.90;;;;;;;;;;5053615;28;20492;-70
2022/01/29 01:53:31;;;;;;;9.98;4.15;;;;;;;;;;5053737;28;20041;-70
2022/01/29 01:55:59;;;;;;;6.80;3.58;;;;;;;;;;5053631;28;20037;-71
2022/01/29 01:58:26;;;;;;;9.45;3.17;;;;;;;;;;5046026;28;20046;-72
2022/01/29 02:00:54;;;;;;;6.32;4.07;;;;;;;;;;5012200;28;20229;-70
2022/01/29 02:03:22;;;;;;;5.00;3.50;;;;;;;;;;5012248;28;20046;-70
2022/01/29 02:05:50;;;;;;;5.60;3.90;;;;;;;;;;5013499;28;20056;-70
2022/01/29 02:08:18;;;;;;;10.52;3.60;;;;;;;;;;5013107;28;20040;-73
2022/01/29 02:10:47;;;;;;;4.80;2.40;;;;;;;;;;5012887;28;20038;-71
2022/01/29 02:13:15;;;;;;;3.00;2.00;;;;;;;;;;5008361;28;20049;-70
2022/01/29 02:15:43;;;;;;;5.30;2.13;;;;;;;;;;5011635;28;20121;-70
2022/01/29 02:18:14;;;;;;;3.72;2.00;;;;;;;;;;5013007;28;20045;-71
2022/01/29 02:20:44;;;;;;;3.88;1.98;;;;;;;;;;5011631;28;20560;-71
2022/01/29 02:23:12;;;;;;;4.28;2.10;;;;;;;;;;4995812;28;20052;-70
2022/01/29 02:25:40;;;;;;;7.93;3.50;;;;;;;;;;5012911;28;20042;-72
2022/01/29 02:28:10;;;;;;;5.97;2.50;;;;;;;;;;5013070;28;20042;-71
2022/01/29 02:30:39;;;;;;;4.32;3.00;;;;;;;;;;5013068;28;20052;-70
2022/01/29 02:33:10;;;;;;;4.45;2.50;;;;;;;;;;5011327;28;20042;-70
2022/01/29 02:35:46;;;;;;;4.93;2.88;;;;;;;;;;5012820;28;20045;-69
2022/01/29 02:38:15;;;;;;;6.25;2.70;;;;;;;;;;5012880;28;20489;-73
2022/01/29 02:40:49;;;;;;;6.60;2.78;;;;;;;;;;5012848;28;20053;-70
2022/01/29 02:43:20;;;;;;;3.45;2.38;;;;;;;;;;5012814;28;20050;-74
2022/01/29 02:45:51;;;;;;;4.03;2.35;;;;;;;;;;5011342;28;20053;-74
2022/01/29 02:48:20;;;;;;;4.38;3.03;;;;;;;;;;5011587;28;20072;-74
2022/01/29 02:50:48;;;;;;;5.70;3.63;;;;;;;;;;5011629;28;20405;-70
2022/01/29 02:53:16;;;;;;;8.27;4.43;;;;;;;;;;5011565;28;20077;-74
2022/01/29 02:55:44;;;;;;;7.10;4.00;;;;;;;;;;5011170;28;20057;-73
2022/01/29 02:58:12;;;;;;;8.48;3.75;;;;;;;;;;5011071;28;20049;-74
2022/01/29 03:00:39;;;;;;;4.65;2.95;;;;;;;;;;5012741;28;20057;-70
2022/01/29 03:03:08;;;;;;;2.30;2.10;;;;;;;;;;5012582;28;20393;-74
2022/01/29 03:05:35;;;;;;;4.30;2.28;;;;;;;;;;5011406;28;20050;-73
2022/01/29 03:08:03;;;;;;;7.93;2.22;;;;;;;;;;5011264;28;20042;-70
2022/01/29 03:10:31;;;;;;;2.88;2.00;;;;;;;;;;5011099;28;20053;-70
2022/01/29 03:12:59;;;;;;;4.32;2.08;;;;;;;;;;5009666;28;20050;-70
2022/01/29 03:15:26;;;;;;;5.00;2.70;;;;;;;;;;5012391;28;20041;-74
2022/01/29 03:17:54;;;;;;;6.85;2.70;;;;;;;;;;5012609;28;20461;-73
2022/01/29 03:20:21;;;;;;;6.85;2.42;;;;;;;;;;5012443;28;20401;-70
2022/01/29 03:22:49;;;;;;;3.38;2.20;;;;;;;;;;5012203;28;20057;-73
2022/01/29 03:25:17;;;;;;;5.10;2.42;;;;;;;;;;5012370;28;20042;-70
2022/01/29 03:27:44;;;;;;;3.92;2.22;;;;;;;;;;4994924;28;20046;-70
2022/01/29 03:30:12;;;;;;;7.30;1.90;;;;;;;;;;5010830;28;20046;-73
2022/01/29 03:32:39;;;;;;;2.63;1.88;;;;;;;;;;5012131;28;20516;-70
2022/01/29 03:35:07;;;;;;;3.63;1.70;;;;;;;;;;5012252;28;20505;-70
2022/01/29 03:37:35;;;;;;;2.67;2.00;;;;;;;;;;5013274;28;20058;-70
2022/01/29 03:40:05;;;;;;;3.47;2.65;;;;;;;;;;5014710;28;20084;-70
2022/01/29 03:42:39;;;;;;;2.00;1.65;;;;;;;;;;5015866;28;20526;-70
2022/01/29 03:45:08;;;;;;;1.83;1.60;;;;;;;;;;5014349;28;20060;-70
2022/01/29 03:47:35;;;;;;;8.40;1.67;;;;;;;;;;5014761;28;20050;-70
2022/01/29 03:50:03;;;;;;;1.70;0.80;;;;;;;;;;5014847;28;20057;-70
2022/01/29 03:52:31;;;;;;;0.70;0.70;;;;;;;;;;5015830;28;20127;-75
2022/01/29 03:54:58;;;;;;;1.30;0.93;;;;;;;;;;5015773;28;20053;-72
2022/01/29 03:57:26;;;;;;;0.90;0.50;;;;;;;;;;5015651;28;20052;-70
2022/01/29 03:59:53;;;;;;;0.50;0.50;;;;;;;;;;5015685;28;20403;-70
2022/01/29 04:02:24;;;;;;;0.45;0.45;;;;;;;;;;5015769;28;20060;-70
2022/01/29 04:04:52;;;;;;;0.32;0.32;;;;;;;;;;5014425;28;20092;-74
2022/01/29 04:07:19;;;;;;;0.40;0.30;;;;;;;;;;5015298;28;20052;-70
2022/01/29 04:09:50;;;;;;;0.40;0.40;;;;;;;;;;5015058;28;20061;-75
2022/01/29 04:12:17;;;;;;;1.85;0.28;;;;;;;;;;5015425;28;20121;-70
2022/01/29 04:14:45;;;;;;;0.40;0.40;;;;;;;;;;5032246;28;20037;-70
2022/01/29 04:17:14;;;;;;;0.55;0.40;;;;;;;;;;5034638;28;20042;-74
2022/01/29 04:19:41;;;;;;;1.77;0.70;;;;;;;;;;5035735;28;20042;-71
2022/01/29 04:22:09;;;;;;;1.30;1.05;;;;;;;;;;5035274;28;20050;-74
2022/01/29 04:24:37;;;;;;;2.03;1.23;;;;;;;;;;5035241;28;20042;-74
2022/01/29 04:27:14;;;;;;;2.25;2.05;;;;;;;;;;5035141;28;20045;-74
2022/01/29 04:29:53;;;;;;;2.85;2.47;;;;;;;;;;5035151;28;20493;-71
2022/01/29 04:32:33;;;;;;;2.53;1.90;;;;;;;;;;5034967;28;20504;-74
2022/01/29 04:35:02;;;;;;;2.58;2.00;;;;;;;;;;5033627;28;20049;-74
2022/01/29 04:37:29;;;;;;;1.50;1.40;;;;;;;;;;5033670;28;20060;-74
2022/01/29 04:39:57;;;;;;;1.40;1.30;;;;;;;;;;5017967;28;20047;-74
2022/01/29 04:42:26;;;;;;;1.35;1.00;;;;;;;;;;5033633;28;20041;-74
2022/01/29 04:44:55;;;;;;;1.77;1.23;;;;;;;;;;5033250;28;20140;-73
2022/01/29 04:47:22;;;;;;;3.72;1.40;;;;;;;;;;5033020;28;20045;-74
2022/01/29 04:49:50;;;;;;;1.60;1.42;;;;;;;;;;5034259;28;20501;-70
2022/01/29 04:52:17;;;;;;;3.88;1.35;;;;;;;;;;5033913;28;20061;-71
2022/01/29 04:54:44;;;;;;;1.20;1.00;;;;;;;;;;5034759;28;20038;-71
2022/01/29 04:57:12;;;;;;;2.03;1.30;;;;;;;;;;5033241;28;20037;-73
2022/01/29 04:59:39;;;;;;;2.80;1.38;;;;;;;;;;5035028;28;20049;-74
2022/01/29 05:02:07;;;;;;;1.65;1.13;;;;;;;;;;5033479;28;20076;-70
2022/01/29 05:04:34;;;;;;;2.08;1.10;;;;;;;;;;5033362;28;20564;-73
2022/01/29 05:07:03;;;;;;;2.13;1.17;;;;;;;;;;5034606;28;20065;-74
2022/01/29 05:09:31;;;;;;;4.32;1.27;;;;;;;;;;5034148;28;20133;-70
2022/01/29 05:12:01;;;;;;;4.00;1.70;;;;;;;;;;5033433;28;20037;-74
2022/01/29 05:14:47;;;;;;;2.28;1.27;;;;;;;;;;5033450;28;20044;-73
2022/01/29 05:28:00;;;;;;;2.13;1.73;;;;;;;;;;5032760;28;20049;-74
2022/01/29 05:30:28;;;;;;;4.20;1.83;;;;;;;;;;5032742;28;20044;-74
2022/01/29 05:32:55;;;;;;;2.50;1.90;;;;;;;;;;5032922;28;20037;-70
2022/01/29 05:35:22;;;;;;;2.50;1.73;;;;;;;;;;5033355;28;20063;-74
2022/01/29 05:37:51;;;;;;;2.15;1.70;;;;;;;;;;5032763;28;20041;-73
2022/01/29 05:40:19;;;;;;;2.13;1.80;;;;;;;;;;5032861;28;20045;-73
2022/01/29 05:42:46;;;;;;;3.25;1.92;;;;;;;;;;5032574;28;20041;-71
2022/01/29 05:45:14;;;;;;;1.98;1.77;;;;;;;;;;5033490;28;20045;-75
2022/01/29 05:47:42;;;;;;;3.08;2.20;;;;;;;;;;5032577;28;20473;-75
2022/01/29 05:50:10;;;;;;;4.90;2.30;;;;;;;;;;5033905;28;20037;-75
2022/01/29 05:52:38;;;;;;;2.00;1.90;;;;;;;;;;5033697;28;20125;-75
2022/01/29 05:55:06;;;;;;;2.45;2.05;;;;;;;;;;5032704;28;20044;-75
2022/01/29 05:57:34;;;;;;;5.47;1.90;;;;;;;;;;5032391;28;20045;-74
2022/01/29 06:00:02;;;;;;;3.45;2.05;;;;;;;;;;5033553;28;20409;-74
2022/01/29 06:02:29;;;;;;;2.20;1.77;;;;;;;;;;5011283;28;20049;-75
2022/01/29 06:04:57;;;;;;;2.92;2.22;;;;;;;;;;5032100;28;20067;-75
2022/01/29 06:07:24;;;;;;;1.95;1.75;;;;;;;;;;5022221;28;20052;-71
2022/01/29 06:09:52;;;;;;;3.47;1.70;;;;;;;;;;5013362;28;20057;-74
2022/01/29 06:12:19;;;;;;;4.38;1.77;;;;;;;;;;5012176;28;20042;-75
2022/01/29 06:14:47;;;;;;;4.05;1.80;;;;;;;;;;5021721;28;20037;-71
2022/01/29 06:17:15;;;;;;;3.42;2.35;;;;;;;;;;5016885;28;20051;-74
2022/01/29 06:19:42;;;;;;;3.65;2.83;;;;;;;;;;5032575;28;20052;-71
2022/01/29 06:22:13;;;;;;;4.38;2.10;;;;;;;;;;5031095;28;20095;-71
2022/01/29 06:24:41;;;;;;;3.10;1.70;;;;;;;;;;5033089;28;20128;-71
2022/01/29 06:27:09;;;;;;;2.60;2.00;;;;;;;;;;5021841;28;20493;-74
2022/01/29 06:29:36;;;;;;;4.35;2.28;;;;;;;;;;5022292;28;20030;-75
2022/01/29 06:32:04;;;;;;;3.78;2.42;;;;;;;;;;5021163;28;20041;-75
2022/01/29 06:34:31;;;;;;;3.38;2.30;;;;;;;;;;5021667;28;20041;-71
2022/01/29 06:36:59;;;;;;;3.42;1.95;;;;;;;;;;5021936;28;20034;-71
2022/01/29 06:39:27;;;;;;;7.45;3.38;;;;;;;;;;5023495;28;20037;-75
2022/01/29 06:41:54;;;;;;;2.15;1.40;;;;;;;;;;5022251;28;20048;-71
2022/01/29 06:44:22;;;;;;;3.17;1.90;;;;;;;;;;5022462;28;20060;-74
2022/01/29 06:46:49;;;;;;;7.65;3.50;;;;;;;;;;5020790;28;20497;-73
2022/01/29 06:49:17;;;;;;;4.05;2.45;;;;;;;;;;5026007;28;20131;-70
2022/01/29 06:51:44;;;;;;;0.80;0.80;;;;;;;;;;5012489;28;20055;-71
2022/01/29 06:54:12;;;;;;;1.42;1.10;;;;;;;;;;5012580;28;20030;-70
2022/01/29 06:56:40;;;;;;;2.67;1.70;;;;;;;;;;5012170;28;20441;-71
2022/01/29 06:59:07;;;;;;;4.32;2.17;;;;;;;;;;5012424;28;20038;-70
2022/01/29 07:01:38;;;;;;;2.17;1.88;;;;;;;;;;5010844;28;20076;-70
2022/01/29 07:04:11;;;;;;;3.28;2.10;;;;;;;;;;5016197;28;20062;-72
2022/01/29 07:06:38;;;;;;;2.53;1.42;;;;;;;;;;5011804;28;20050;-71
2022/01/29 07:09:06;;;;;;;2.03;1.30;;;;;;;;;;5028544;28;20061;-71
2022/01/29 07:11:33;;;;;;;1.17;1.08;;;;;;;;;;5016744;28;20576;-72
2022/01/29 07:14:04;;;;;;;4.47;1.33;;;;;;;;;;5029279;28;20038;-74
2022/01/29 07:16:33;;;;;;;2.08;1.50;;;;;;;;;;5023570;28;20048;-70
2022/01/29 07:19:01;;;;;;;1.92;1.20;;;;;;;;;;5022146;28;20416;-75
2022/01/29 07:21:29;;;;;;;1.42;1.20;;;;;;;;;;5020889;28;20046;-75
2022/01/29 07:23:57;;;;;;;2.95;1.70;;;;;;;;;;5024941;28;20405;-71
2022/01/29 07:26:26;;;;;;;2.90;1.42;;;;;;;;;;5023232;28;20042;-71
2022/01/29 07:28:55;;;;;;;1.48;1.38;;;;;;;;;;5023323;28;20047;-73
2022/01/29 07:31:23;;;;;;;2.58;1.40;;;;;;;;;;5025786;28;20042;-71
2022/01/29 07:33:51;;;;;;;1.83;1.55;;;;;;;;;;5025516;28;20420;-74
2022/01/29 07:36:19;;;;;;;2.90;1.70;;;;;;;;;;5022045;28;20412;-75
2022/01/29 07:38:48;;;;;;;1.92;1.50;;;;;;;;;;5018155;28;20041;-74
2022/01/29 07:41:16;;;;;;;3.17;2.00;;;;;;;;;;5016669;28;20497;-71
2022/01/29 07:43:44;;;;;;;3.55;1.83;;;;;;;;;;5014019;28;20037;-73
2022/01/29 07:46:11;;;;;;;4.78;1.65;;;;;;;;;;5016144;28;20046;-74
2022/01/29 07:48:41;;;;;;;6.95;1.85;;;;;;;;;;5015470;28;20034;-72
2022/01/29 07:51:08;;;;;;;4.63;2.40;;;;;;;;;;5016165;28;20045;-74
2022/01/29 07:53:36;;;;;;;3.22;1.90;;;;;;;;;;5014343;28;20034;-75
2022/01/29 07:56:03;;;;;;;2.88;1.80;;;;;;;;;;5005747;28;20349;-71
2022/01/29 07:58:31;;;;;;;2.20;2.00;;;;;;;;;;5023132;28;20042;-73
2022/01/29 08:00:59;;;;;;;3.58;1.90;;;;;;;;;;5015349;28;20033;-73
2022/01/29 08:03:26;;;;;;;4.07;2.40;;;;;;;;;;5014906;28;20033;-72
2022/01/29 08:05:54;;;;;;;3.80;2.38;;;;;;;;;;5014909;28;20038;-71
2022/01/29 08:08:22;;;;;;;3.67;2.10;;;;;;;;;;5020354;28;20060;-71
2022/01/29 08:10:49;;;;;;;3.13;1.77;;;;;;;;;;5028295;28;20381;-74
2022/01/29 08:13:17;;;;;;;3.75;1.58;;;;;;;;;;5032347;28;20030;-71
2022/01/29 08:15:44;;;;;;;2.85;1.60;;;;;;;;;;5014521;28;20137;-71
2022/01/29 08:18:12;;;;;;;3.78;1.70;;;;;;;;;;5014763;28;20045;-74
2022/01/29 08:20:40;;;;;;;3.38;2.17;;;;;;;;;;5014767;28;20037;-73
2022/01/29 08:23:08;;;;;;;2.50;1.73;;;;;;;;;;5014116;28;20053;-71
2022/01/29 08:25:38;;;;;;;1.67;1.58;;;;;;;;;;5014457;28;20038;-71
2022/01/29 08:28:07;;;;;;;3.42;1.63;;;;;;;;;;5014554;28;20038;-71
2022/01/29 08:30:36;;;;;;;2.75;1.17;;;;;;;;;;5014783;28;20034;-72
2022/01/29 08:33:06;;;;;;;1.80;1.25;;;;;;;;;;5030554;28;20041;-70
2022/01/29 08:35:33;;;;;;;1.77;1.25;;;;;;;;;;5034033;28;20091;-72
2022/01/29 08:38:02;;;;;;;2.22;1.02;;;;;;;;;;5028220;28;20034;-73
2022/01/29 08:40:30;;;;;;;3.00;1.00;;;;;;;;;;5013185;28;20046;-71
2022/01/29 08:43:00;;;;;;;1.23;1.00;;;;;;;;;;5014499;28;20049;-74
2022/01/29 08:45:28;;;;;;;1.92;0.98;;;;;;;;;;5016248;28;20045;-71
2022/01/29 08:47:55;;;;;;;1.88;1.38;;;;;;;;;;5021247;28;20041;-72
2022/01/29 08:50:25;;;;;;;1.40;1.30;;;;;;;;;;5014154;28;20042;-71
2022/01/29 08:52:53;;;;;;;2.85;1.40;;;;;;;;;;5014343;28;20044;-72
2022/01/29 08:55:26;;;;;;;;;;;;;;;;;;5013011;28;20129;-71
2022/01/29 08:57:54;;;;;;;3.63;1.98;;;;;;;;;;5013777;28;19921;-72
2022/01/29 09:00:22;;;;;;;2.63;1.45;;;;;;;;;;5027758;28;20507;-74
2022/01/29 09:02:50;;;;;;;3.65;1.83;;;;;;;;;;5032356;28;20045;-74
2022/01/29 09:05:18;;;;;;;4.43;1.77;;;;;;;;;;5033589;28;20045;-71
2022/01/29 09:07:47;;;;;;;5.97;1.55;;;;;;;;;;5033436;28;20037;-74
2022/01/29 09:10:16;;;;;;;4.05;1.25;;;;;;;;;;5033014;28;20053;-74
2022/01/29 09:12:47;;;;;;;3.40;1.20;;;;;;;;;;5033554;28;20064;-75
2022/01/29 09:15:15;;;;;;;5.22;2.17;;;;;;;;;;5033467;28;20064;-73
2022/01/29 09:17:42;;;;;;;2.80;1.38;;;;;;;;;;5014144;28;20405;-72
2022/01/29 09:20:11;;;;;;;5.40;1.50;;;;;;;;;;5020889;28;20052;-75
2022/01/29 09:22:39;;;;;;;2.95;1.55;;;;;;;;;;5013242;28;20038;-75
2022/01/29 09:25:07;;;;;;;6.82;1.70;;;;;;;;;;5013560;28;20042;-71
2022/01/29 09:27:36;;;;;;;1.73;1.20;;;;;;;;;;5014582;28;20436;-70
2022/01/29 09:30:05;;;;;;;3.38;1.40;;;;;;;;;;5013342;28;20456;-75
2022/01/29 09:32:35;;;;;;;2.80;1.40;;;;;;;;;;5012014;28;20045;-74
2022/01/29 09:35:05;;;;;;;3.78;1.50;;;;;;;;;;5012647;28;20045;-74
2022/01/29 09:37:34;;;;;;;4.00;1.23;;;;;;;;;;5012917;28;20049;-71
2022/01/29 09:40:04;;;;;;;2.97;1.35;;;;;;;;;;4995592;28;20165;-74
2022/01/29 09:42:32;;;;;;;2.80;1.63;;;;;;;;;;5012813;28;20052;-74
2022/01/29 09:44:59;;;;;;;2.47;1.20;;;;;;;;;;5030477;28;20176;-75
2022/01/29 09:47:28;;;;;;;2.80;1.65;;;;;;;;;;5027233;28;20409;-75
2022/01/29 09:49:56;;;;;;;7.25;1.98;;;;;;;;;;5017909;28;20079;-70
2022/01/29 09:52:24;;;;;;;2.80;1.40;;;;;;;;;;5020620;28;20370;-76
2022/01/29 09:54:58;;;;;;;4.45;1.60;;;;;;;;;;5021191;28;20032;-75
2022/01/29 09:57:26;;;;;;;2.47;1.30;;;;;;;;;;5021718;28;20129;-71
2022/01/29 09:59:53;;;;;;;3.92;1.50;;;;;;;;;;5004184;28;20397;-71
2022/01/29 10:02:21;;;;;;;4.28;1.20;;;;;;;;;;5023261;28;20048;-72
2022/01/29 10:04:52;;;;;;;3.35;1.58;;;;;;;;;;5022197;28;20042;-75
2022/01/29 10:07:27;;;;;;;4.90;1.30;;;;;;;;;;5021240;28;20124;-76
2022/01/29 10:09:55;;;;;;;2.97;1.42;;;;;;;;;;5045270;23;20053;-76
2022/01/29 10:12:23;;;;;;;3.25;1.35;;;;;;;;;;5044807;28;20287;-77
2022/01/29 10:14:52;;;;;;;2.55;1.38;;;;;;;;;;5044655;28;20488;-73
2022/01/29 10:17:38;;;;;;;5.03;1.40;;;;;;;;;;5048225;28;20112;-74
2022/01/29 10:20:12;;;;;;;2.40;1.38;;;;;;;;;;5045668;28;20041;-70
2022/01/29 10:22:39;;;;;;;;;;;;;;;;;;5041585;28;20064;-73
2022/01/29 10:25:10;;;;;;;4.38;1.30;;;;;;;;;;5044426;28;19935;-71
2022/01/29 10:27:38;;;;;;;3.22;1.30;;;;;;;;;;5046066;28;20036;-73
2022/01/29 10:30:10;;;;;;;2.90;1.63;;;;;;;;;;5036831;28;20026;-72
2022/01/29 10:32:39;;;;;;;5.43;1.30;;;;;;;;;;5023552;28;20048;-75
2022/01/29 10:35:11;;;;;;;3.05;1.50;;;;;;;;;;5038735;28;20041;-73
2022/01/29 10:37:39;;;;;;;2.72;1.38;;;;;;;;;;5040147;28;20047;-71
2022/01/29 10:40:16;;;;;;;1.73;1.48;;;;;;;;;;5042055;28;20044;-70
2022/01/29 10:42:44;;;;;;;4.10;1.48;;;;;;;;;;5039390;28;20570;-72
2022/01/29 10:45:12;;;;;;;3.05;1.20;;;;;;;;;;5041984;28;20091;-75
2022/01/29 10:47:53;;;;;;;1.48;1.20;;;;;;;;;;5040664;28;20523;-71
2022/01/29 10:50:21;;;;;;;2.17;1.35;;;;;;;;;;5039810;28;20349;-73
2022/01/29 10:52:49;;;;;;;4.50;1.20;;;;;;;;;;5042818;28;20033;-72
2022/01/29 10:55:16;;;;;;;3.92;1.33;;;;;;;;;;5042777;28;20040;-74
2022/01/29 10:57:45;;;;;;;4.18;1.23;;;;;;;;;;5024948;28;20056;-75
2022/01/29 11:00:17;;;;;;;4.15;1.70;;;;;;;;;;5023545;28;20619;-73
2022/01/29 11:02:45;;;;;;;3.45;1.30;;;;;;;;;;5038130;28;20048;-72
2022/01/29 11:05:14;;;;;;;3.50;1.70;;;;;;;;;;5040083;28;20057;-71
2022/01/29 11:07:45;;;;;;;3.30;1.48;;;;;;;;;;5036564;28;20048;-73
2022/01/29 11:10:13;;;;;;;2.65;1.90;;;;;;;;;;5028564;28;20107;-73
2022/01/29 11:12:47;;;;;;;4.63;1.60;;;;;;;;;;5025738;28;20041;-75
2022/01/29 11:15:19;;;;;;;2.60;1.50;;;;;;;;;;5048027;28;20040;-72
2022/01/29 11:17:48;;;;;;;6.32;1.60;;;;;;;;;;5046264;28;20064;-72
2022/01/29 11:20:17;;;;;;;2.45;1.20;;;;;;;;;;5040285;28;20046;-74
2022/01/29 11:22:45;;;;;;;3.20;1.20;;;;;;;;;;5023716;28;20497;-74
2022/01/29 11:25:20;;;;;;;3.47;1.33;;;;;;;;;;5018713;28;20037;-72
2022/01/29 11:27:48;;;;;;;2.17;1.40;;;;;;;;;;5024450;28;20534;-75
2022/01/29 11:30:16;;;;;;;4.18;1.50;;;;;;;;;;5013940;28;20042;-71
2022/01/29 11:32:45;;;;;;;5.35;1.48;;;;;;;;;;5022258;28;20042;-72
2022/01/29 11:35:16;;;;;;;4.05;1.92;;;;;;;;;;5023413;28;20040;-71
2022/01/29 11:37:44;;;;;;;6.72;1.50;;;;;;;;;;5018916;28;20057;-72
2022/01/29 11:40:24;;;;;;;5.65;1.25;;;;;;;;;;5020039;28;20552;-71
2022/01/29 11:43:00;;;;;;;3.75;1.10;;;;;;;;;;5019523;28;20440;-71
2022/01/29 11:45:32;;;;;;;3.45;0.98;;;;;;;;;;5019003;28;20064;-72
2022/01/29 11:47:59;;;;;;;7.43;1.50;;;;;;;;;;5021094;28;20069;-73
2022/01/29 11:50:27;;;;;;;5.38;1.27;;;;;;;;;;5021503;28;20037;-73
2022/01/29 11:52:54;;;;;;;5.78;1.10;;;;;;;;;;5022427;28;20045;-71
2022/01/29 11:55:48;;;;;;;1.95;1.05;;;;;;;;;;5020981;28;20045;-73
2022/01/29 11:58:20;;;;;;;5.80;1.10;;;;;;;;;;5014702;28;20104;-72
2022/01/29 12:00:53;;;;;;;2.15;1.02;;;;;;;;;;5025709;28;20037;-73
2022/01/29 12:03:44;;;;;;;7.43;1.38;;;;;;;;;;5023983;28;20065;-72
2022/01/29 12:06:19;;;;;;;5.18;1.15;;;;;;;;;;5030406;28;20472;-72
2022/01/29 12:09:05;;;;;;;2.45;1.35;;;;;;;;;;5034253;28;20057;-75
2022/01/29 12:11:33;;;;;;;2.95;1.40;;;;;;;;;;5034888;28;20033;-72
2022/01/29 12:14:16;;;;;;;5.22;1.52;;;;;;;;;;5043761;28;20033;-72
2022/01/29 12:16:48;;;;;;;7.53;1.58;;;;;;;;;;5045006;28;20120;-76
2022/01/29 12:19:33;;;;;;;6.45;1.38;;;;;;;;;;5039810;28;20055;-73
2022/01/29 12:22:09;;;;;;;3.42;1.27;;;;;;;;;;5043286;28;20033;-73
2022/01/29 12:24:38;;;;;;;2.55;1.25;;;;;;;;;;5035461;28;20072;-73
2022/01/29 12:27:06;;;;;;;4.03;1.17;;;;;;;;;;5034753;28;20366;-74
2022/01/29 12:29:34;;;;;;;2.97;2.35;;;;;;;;;;5042253;28;20452;-73
2022/01/29 12:32:02;;;;;;;4.55;1.20;;;;;;;;;;5041677;28;20570;-76
2022/01/29 12:34:53;;;;;;;4.35;1.27;;;;;;;;;;5039135;28;20107;-73
2022/01/29 12:37:26;;;;;;;4.80;1.58;;;;;;;;;;5036748;28;20125;-72
2022/01/29 12:40:18;;;;;;;4.15;1.25;;;;;;;;;;5034640;28;20396;-77
2022/01/29 12:42:56;;;;;;;2.28;1.30;;;;;;;;;;5035048;28;20465;-73
2022/01/29 12:45:28;;;;;;;3.70;1.00;;;;;;;;;;5033591;28;20049;-76
2022/01/29 12:48:06;;;;;;;1.20;1.00;;;;;;;;;;5033569;28;20050;-72
2022/01/29 12:50:34;;;;;;;5.80;1.42;;;;;;;;;;5034874;28;20045;-74
2022/01/29 12:53:06;;;;;;;4.75;1.20;;;;;;;;;;5034410;28;20072;-76
2022/01/29 12:55:35;;;;;;;3.97;1.10;;;;;;;;;;5034856;28;20112;-72
2022/01/29 12:58:06;;;;;;;1.42;1.10;;;;;;;;;;5034386;28;20041;-75
2022/01/29 13:00:34;;;;;;;5.65;1.92;;;;;;;;;;5034503;28;20064;-76
2022/01/29 13:03:07;;;;;;;5.88;3.13;;;;;;;;;;5032994;28;20056;-72
2022/01/29 13:05:39;;;;;;;3.20;1.50;;;;;;;;;;5034234;28;20048;-71
2022/01/29 13:08:07;;;;;;;5.57;1.33;;;;;;;;;;5034147;28;20517;-77
2022/01/29 13:10:35;;;;;;;1.48;1.00;;;;;;;;;;5033300;28;20057;-76
2022/01/29 13:13:03;;;;;;;5.63;1.63;;;;;;;;;;5034296;28;20042;-76
2022/01/29 13:15:40;;;;;;;1.95;1.73;;;;;;;;;;5030558;28;20037;-78
2022/01/29 13:18:09;;;;;;;4.75;1.40;;;;;;;;;;5033658;28;20057;-71
2022/01/29 13:20:37;;;;;;;3.42;1.67;;;;;;;;;;5038365;28;20037;-77
2022/01/29 13:23:20;;;;;;;;;;;;;;;;;;5024484;28;20046;-77
2022/01/29 13:25:51;;;;;;;3.42;1.13;;;;;;;;;;5023373;28;19921;-71
2022/01/29 13:28:21;;;;;;;1.25;1.02;;;;;;;;;;5022291;28;20080;-73
2022/01/29 13:30:51;;;;;;;4.15;1.00;;;;;;;;;;5022401;28;20045;-70
2022/01/29 13:33:20;;;;;;;4.72;1.33;;;;;;;;;;5020593;28;20042;-71
2022/01/29 13:35:53;;;;;;;4.93;1.20;;;;;;;;;;5040117;28;20033;-73
2022/01/29 13:38:24;;;;;;;2.30;0.90;;;;;;;;;;5021990;28;20112;-73
2022/01/29 13:41:02;;;;;;;10.55;0.98;;;;;;;;;;5025693;28;20056;-73
2022/01/29 13:43:34;;;;;;;3.35;0.80;;;;;;;;;;5041018;28;20121;-73
2022/01/29 13:46:08;;;;;;;3.88;1.30;;;;;;;;;;5041489;28;20119;-72
2022/01/29 13:48:52;;;;;;;3.15;1.30;;;;;;;;;;5042514;28;20396;-73
2022/01/29 13:51:29;;;;;;;2.63;1.10;;;;;;;;;;5047863;28;20041;-71
2022/01/29 13:53:58;;;;;;;2.67;0.93;;;;;;;;;;5050787;28;20059;-72
2022/01/29 13:56:30;;;;;;;2.45;0.82;;;;;;;;;;5033920;28;20049;-73
2022/01/29 13:59:01;;;;;;;2.35;0.70;;;;;;;;;;5051011;28;20043;-75
2022/01/29 14:01:42;;;;;;;6.05;0.80;;;;;;;;;;5052411;28;20123;-77
2022/01/29 14:04:32;;;;;;;6.78;1.02;;;;;;;;;;5053218;28;20041;-77
2022/01/29 14:07:15;;;;;;;7.45;1.40;;;;;;;;;;5051961;28;20431;-75
2022/01/29 14:12:17;;;;;;;5.68;1.02;;;;;;;;;;5052891;28;20041;-78
2022/01/29 14:14:47;;;;;;;3.28;1.67;;;;;;;;;;5052015;28;20067;-71
2022/01/29 14:17:15;;;;;;;5.82;1.30;;;;;;;;;;5052983;28;20047;-76
2022/01/29 14:19:45;;;;;;;8.82;0.98;;;;;;;;;;5052987;28;20111;-77
2022/01/29 14:22:13;;;;;;;3.55;0.85;;;;;;;;;;5052254;28;20037;-77
2022/01/29 14:24:42;;;;;;;3.70;1.45;;;;;;;;;;5052554;28;20048;-78
2022/01/29 14:27:10;;;;;;;6.43;1.05;;;;;;;;;;5052860;28;20037;-77
2022/01/29 14:29:39;;;;;;;5.60;1.20;;;;;;;;;;5052434;28;20481;-75
2022/01/29 14:32:22;;;;;;;3.17;1.30;;;;;;;;;;5051328;28;20041;-75
2022/01/29 14:35:08;;;;;;;0.70;0.70;;;;;;;;;;5052848;28;20041;-72
2022/01/29 14:37:39;;;;;;;6.28;1.40;;;;;;;;;;5052860;28;20061;-71
2022/01/29 14:40:12;;;;;;;3.47;1.38;;;;;;;;;;5052701;28;20041;-77
2022/01/29 14:42:45;;;;;;;4.57;1.15;;;;;;;;;;5050499;28;20064;-72
2022/01/29 14:45:14;;;;;;;6.78;1.40;;;;;;;;;;5051283;28;20140;-77
2022/01/29 14:47:49;;;;;;;2.72;0.80;;;;;;;;;;5052403;28;20432;-73
2022/01/29 14:50:18;;;;;;;49.17;21.23;;;;;;;;;;5052754;28;20120;-74
2022/01/29 14:52:49;;;;;;;4.25;1.00;;;;;;;;;;5042005;28;20147;-74
2022/01/29 14:55:17;;;;;;;3.90;1.17;;;;;;;;;;5030629;28;20037;-73
2022/01/29 14:57:49;;;;;;;1.75;0.88;;;;;;;;;;5031169;28;20038;-76
2022/01/29 15:00:18;;;;;;;2.78;1.15;;;;;;;;;;5030179;28;20041;-76
2022/01/29 15:02:45;;;;;;;2.83;0.90;;;;;;;;;;5032138;28;20042;-72
2022/01/29 15:05:15;;;;;;;4.07;1.35;;;;;;;;;;5032261;28;20068;-73
2022/01/29 15:07:42;;;;;;;4.85;1.20;;;;;;;;;;5032437;28;20033;-75
2022/01/29 15:10:12;;;;;;;1.73;0.90;;;;;;;;;;5032120;28;20049;-76
2022/01/29 15:12:39;;;;;;;4.15;1.20;;;;;;;;;;5031110;28;20057;-73